createdAt,value
2022-09-07T00:02:07.340Z,83.94
2022-09-07T00:04:34.596Z,84.34
2022-09-07T00:07:02.187Z,84.07
2022-09-07T00:09:29.192Z,83.83
2022-09-07T00:11:56.260Z,83.71
2022-09-07T00:14:23.875Z,85.24
2022-09-07T00:16:50.885Z,85.31
2022-09-07T00:19:18.103Z,84.99
2022-09-07T00:21:45.485Z,85.31
2022-09-07T00:24:12.549Z,86.04
2022-09-07T00:26:39.630Z,86.47
2022-09-07T00:29:07.841Z,86.22
2022-09-07T00:31:34.794Z,86.88
2022-09-07T00:34:02.237Z,86.33
2022-09-07T00:36:29.254Z,86.59
2022-09-07T00:38:56.576Z,87.29
2022-09-07T00:41:23.759Z,87.61
2022-09-07T00:43:52.515Z,87.27
2022-09-07T00:46:24.591Z,87.01
2022-09-07T00:49:02.887Z,88.03
2022-09-07T00:51:33.642Z,87.95
2022-09-07T00:54:03.125Z,88.21
2022-09-07T00:56:32.221Z,87.66
2022-09-07T00:58:59.496Z,87.62
2022-09-07T01:01:27.587Z,88.02
2022-09-07T01:03:56.293Z,88.41
2022-09-07T01:06:26.672Z,88.13
2022-09-07T01:08:55.238Z,88.56
2022-09-07T01:11:23.151Z,88.64
2022-09-07T01:13:51.002Z,88.34
2022-09-07T01:16:30.245Z,89.07
2022-09-07T01:19:05.754Z,88.51
2022-09-07T01:21:35.779Z,88.69
2022-09-07T01:24:02.720Z,88.52
2022-09-07T01:26:43.935Z,89.58
2022-09-07T01:29:24.224Z,89.17
2022-09-07T01:31:54.184Z,89.09
2022-09-07T01:34:22.728Z,88.37
2022-09-07T01:37:03.147Z,89.11
2022-09-07T01:39:36.366Z,88.99
2022-09-07T01:42:10.615Z,89.42
2022-09-07T01:44:39.988Z,90.15
2022-09-07T01:47:10.883Z,89.90
2022-09-07T01:49:56.672Z,90.32
2022-09-07T01:52:28.636Z,89.42
2022-09-07T01:55:00.212Z,89.26
2022-09-07T01:57:36.655Z,90.34
2022-09-07T02:00:11.768Z,90.58
2022-09-07T02:02:50.940Z,91.28
2022-09-07T02:05:22.518Z,90.99
2022-09-07T02:07:55.300Z,91.75
2022-09-07T02:10:25.783Z,91.56
2022-09-07T02:13:14.802Z,91.75
2022-09-07T02:15:41.757Z,92.11
2022-09-07T02:18:10.918Z,92.50
2022-09-07T02:20:39.267Z,92.34
2022-09-07T02:23:11.541Z,91.93
2022-09-07T02:25:53.684Z,93.21
2022-09-07T02:28:29.783Z,93.27
2022-09-07T02:30:56.962Z,92.70
2022-09-07T02:33:24.242Z,92.60
2022-09-07T02:35:51.753Z,93.51
2022-09-07T02:38:18.700Z,94.18
2022-09-07T02:40:50.714Z,93.88
2022-09-07T02:43:17.645Z,94.07
2022-09-07T02:45:47.587Z,94.28
2022-09-07T02:48:17.644Z,94.02
2022-09-07T02:50:47.198Z,93.61
2022-09-07T02:53:14.394Z,93.59
2022-09-07T02:56:06.448Z,94.08
2022-09-07T02:58:33.456Z,93.71
2022-09-07T03:01:06.656Z,93.25
2022-09-07T03:03:51.795Z,93.06
2022-09-07T03:06:33.566Z,92.25
2022-09-07T03:09:04.497Z,91.46
2022-09-07T03:11:32.270Z,91.69
2022-09-07T03:14:12.474Z,91.59
2022-09-07T03:16:39.510Z,90.56
2022-09-07T03:19:06.576Z,90.83
2022-09-07T03:21:33.579Z,91.04
2022-09-07T03:24:00.561Z,91.14
2022-09-07T03:26:27.698Z,90.73
2022-09-07T03:28:55.035Z,90.90
2022-09-07T03:31:22.195Z,90.50
2022-09-07T03:33:49.226Z,90.56
2022-09-07T03:36:16.102Z,89.67
2022-09-07T03:38:43.083Z,89.66
2022-09-07T03:41:10.213Z,89.54
2022-09-07T03:43:37.174Z,89.26
2022-09-07T03:46:05.186Z,88.75
2022-09-07T03:48:35.566Z,89.13
2022-09-07T03:51:09.599Z,88.93
2022-09-07T03:53:38.057Z,88.51
2022-09-07T03:56:06.381Z,88.29
2022-09-07T03:58:33.989Z,87.08
2022-09-07T04:01:04.611Z,86.79
2022-09-07T04:03:31.639Z,86.74
2022-09-07T04:05:59.048Z,86.43
2022-09-07T04:08:27.182Z,86.05
2022-09-07T04:10:55.657Z,85.76
2022-09-07T04:13:22.664Z,85.90
2022-09-07T04:15:53.366Z,85.66
2022-09-07T04:18:21.603Z,85.58
2022-09-07T04:20:52.755Z,85.68
2022-09-07T04:23:20.245Z,85.72
2022-09-07T04:25:51.095Z,85.43
2022-09-07T04:28:18.377Z,84.15
2022-09-07T04:30:45.795Z,83.90
2022-09-07T04:33:13.304Z,83.28
2022-09-07T04:35:40.898Z,82.82
2022-09-07T04:38:08.540Z,81.82
2022-09-07T04:40:36.179Z,80.13
2022-09-07T04:43:05.548Z,79.62
2022-09-07T04:45:32.522Z,78.16
2022-09-07T04:47:59.437Z,75.88
2022-09-07T04:50:26.367Z,68.37
2022-09-07T04:52:53.327Z,57.55
2022-09-07T04:55:20.247Z,52.82
2022-09-07T04:57:50.532Z,53.18
2022-09-07T05:00:17.586Z,48.88
2022-09-07T05:02:44.747Z,47.36
2022-09-07T05:05:11.708Z,40.25
2022-09-07T05:07:38.718Z,35.39
2022-09-07T05:10:05.779Z,32.91
2022-09-07T05:12:32.946Z,31.20
2022-09-07T05:14:59.965Z,31.75
2022-09-07T05:17:28.311Z,33.02
2022-09-07T05:19:55.256Z,37.60
2022-09-07T05:22:22.626Z,42.90
2022-09-07T05:24:49.603Z,44.48
2022-09-07T05:27:16.720Z,47.33
2022-09-07T05:30:03.772Z,48.51
2022-09-07T05:32:32.342Z,47.36
2022-09-07T05:34:59.233Z,48.00
2022-09-07T05:37:26.750Z,48.33
2022-09-07T05:39:56.031Z,49.42
2022-09-07T05:42:23.083Z,51.00
2022-09-07T05:44:49.998Z,52.44
2022-09-07T05:47:17.018Z,53.31
2022-09-07T05:49:43.921Z,53.62
2022-09-07T05:52:10.973Z,53.19
2022-09-07T05:54:37.996Z,51.20
2022-09-07T05:57:05.288Z,50.33
2022-09-07T05:59:32.320Z,50.74
2022-09-07T06:02:00.093Z,51.98
2022-09-07T06:04:27.089Z,53.69
2022-09-07T06:12:30.212Z,49.21
2022-09-07T06:14:57.188Z,41.22
2022-09-07T06:17:24.249Z,40.26
2022-09-07T06:19:51.094Z,39.98
2022-09-07T06:22:18.499Z,38.85
2022-09-07T06:24:45.462Z,36.13
2022-09-07T06:27:12.367Z,35.80
2022-09-07T06:29:39.289Z,33.43
2022-09-07T06:34:53.685Z,31.48
2022-09-07T06:37:20.565Z,34.18
2022-09-07T06:39:49.659Z,33.43
2022-09-07T06:42:16.918Z,36.32
2022-09-07T06:44:44.670Z,37.20
2022-09-07T06:47:11.679Z,39.44
2022-09-07T06:49:38.593Z,39.07
2022-09-07T06:52:05.539Z,39.93
2022-09-07T06:57:19.755Z,41.90
2022-09-07T06:59:46.704Z,42.97
2022-09-07T07:02:15.164Z,44.11
2022-09-07T07:04:42.175Z,45.43
2022-09-07T07:07:12.564Z,46.58
2022-09-07T07:09:40.131Z,47.19
2022-09-07T07:12:07.272Z,47.79
2022-09-07T07:14:37.351Z,47.79
2022-09-07T07:17:05.700Z,47.15
2022-09-07T07:19:32.615Z,46.55
2022-09-07T07:22:36.042Z,46.00
2022-09-07T07:24:46.613Z,46.26
2022-09-07T07:27:13.762Z,46.34
2022-09-07T07:29:41.355Z,46.11
2022-09-07T07:32:08.263Z,47.09
2022-09-07T07:34:35.180Z,46.91
2022-09-07T07:37:02.147Z,47.14
2022-09-07T07:42:16.419Z,47.04
2022-09-07T07:44:43.266Z,47.71
2022-09-07T07:47:10.544Z,47.81
2022-09-07T07:49:37.422Z,47.97
2022-09-07T07:54:53.549Z,47.38
2022-09-07T07:57:24.080Z,47.49
2022-09-07T07:59:51.124Z,46.91
2022-09-07T08:02:18.688Z,46.51
2022-09-07T08:04:45.671Z,47.11
2022-09-07T08:07:13.174Z,47.68
2022-09-07T08:09:43.721Z,48.07
2022-09-07T08:12:12.319Z,47.31
2022-09-07T08:14:43.567Z,47.05
2022-09-07T08:17:11.399Z,46.59
2022-09-07T08:19:38.736Z,46.93
2022-09-07T08:22:05.694Z,47.02
2022-09-07T08:24:32.626Z,47.04
2022-09-07T08:26:59.711Z,46.47
2022-09-07T08:29:27.175Z,46.43
2022-09-07T08:31:54.544Z,46.65
2022-09-07T08:34:22.092Z,46.96
2022-09-07T08:36:49.011Z,46.78
2022-09-07T08:39:16.086Z,46.91
2022-09-07T08:41:48.903Z,46.95
2022-09-07T08:44:18.728Z,47.23
2022-09-07T08:46:50.283Z,47.35
2022-09-07T08:49:24.256Z,45.99
2022-09-07T08:51:55.341Z,45.76
2022-09-07T08:54:22.472Z,45.97
2022-09-07T08:59:52.392Z,45.39
2022-09-07T09:05:20.106Z,45.31
2022-09-07T09:06:10.831Z,45.75
2022-09-07T09:07:52.176Z,44.73
2022-09-07T09:10:25.978Z,44.44
2022-09-07T09:13:11.429Z,43.59
2022-09-07T09:15:44.760Z,43.53
2022-09-07T09:18:30.085Z,43.82
2022-09-07T09:20:57.815Z,44.00
2022-09-07T09:23:27.152Z,45.06
2022-09-07T09:25:55.439Z,45.93
2022-09-07T09:28:23.516Z,46.59
2022-09-07T09:30:51.687Z,47.25
2022-09-07T09:33:18.578Z,47.68
2022-09-07T09:36:01.436Z,47.99
2022-09-07T09:38:30.073Z,47.61
2022-09-07T09:41:08.086Z,47.75
2022-09-07T09:44:07.458Z,47.90
2022-09-07T09:46:36.413Z,46.81
2022-09-07T09:49:24.860Z,46.65
2022-09-07T09:54:42.272Z,45.30
2022-09-07T09:57:16.366Z,46.12
2022-09-07T10:00:02.785Z,45.83
2022-09-07T10:05:27.808Z,46.40
2022-09-07T10:07:54.890Z,46.65
2022-09-07T10:10:21.880Z,47.06
2022-09-07T10:12:52.716Z,46.72
2022-09-07T10:15:27.006Z,47.24
2022-09-07T10:17:54.454Z,46.84
2022-09-07T10:20:38.352Z,46.78
2022-09-07T10:23:06.200Z,46.94
2022-09-07T10:25:36.982Z,47.93
2022-09-07T10:28:11.450Z,47.55
2022-09-07T10:30:57.275Z,48.59
2022-09-07T10:34:25.816Z,48.36
2022-09-07T10:36:52.789Z,48.31
2022-09-07T10:39:25.815Z,48.91
2022-09-07T10:41:53.198Z,49.80
2022-09-07T10:44:29.194Z,51.34
2022-09-07T10:46:58.697Z,54.57
2022-09-07T10:50:22.010Z,55.91
2022-09-07T10:52:48.654Z,57.37
2022-09-07T10:55:39.009Z,58.39
2022-09-07T11:01:28.323Z,60.40
2022-09-07T11:04:06.738Z,61.40
2022-09-07T11:06:37.768Z,63.51
2022-09-07T11:09:20.491Z,63.90
2022-09-07T11:12:06.395Z,64.16
2022-09-07T11:14:44.944Z,67.24
2022-09-07T11:17:23.717Z,67.72
2022-09-07T11:19:56.539Z,68.92
2022-09-07T11:22:32.172Z,68.76
2022-09-07T11:25:34.066Z,68.85
2022-09-07T11:28:12.696Z,69.60
2022-09-07T11:31:11.909Z,71.14
2022-09-07T11:36:44.285Z,74.67
2022-09-07T11:39:17.538Z,74.00
2022-09-07T11:41:52.687Z,75.62
2022-09-07T11:44:30.117Z,75.69
2022-09-07T11:47:17.175Z,75.52
2022-09-07T11:49:47.706Z,76.73
2022-09-07T11:52:26.825Z,77.51
2022-09-07T11:54:56.329Z,78.75
2022-09-07T11:57:29.461Z,79.47
2022-09-07T12:00:02.562Z,81.04
2022-09-07T12:02:59.241Z,78.27
2022-09-07T12:05:45.442Z,79.85
2022-09-07T12:08:32.959Z,78.25
2022-09-07T12:11:22.678Z,78.67
2022-09-07T12:14:02.585Z,79.57
2022-09-07T12:16:29.452Z,80.06
2022-09-07T12:19:05.358Z,79.05
2022-09-07T12:21:35.039Z,79.22
2022-09-07T12:24:02.424Z,79.98
2022-09-07T12:26:38.288Z,81.23
2022-09-07T12:29:17.756Z,81.94
2022-09-07T12:31:57.640Z,82.22
2022-09-07T12:34:32.232Z,82.02
2022-09-07T12:37:18.814Z,81.43
2022-09-07T12:39:45.780Z,84.03
2022-09-07T12:45:18.907Z,84.61
2022-09-07T12:47:56.249Z,84.20
2022-09-07T12:50:39.145Z,84.43
2022-09-07T12:53:06.949Z,84.82
2022-09-07T12:55:34.191Z,86.36
2022-09-07T12:58:50.272Z,86.61
2022-09-07T13:01:24.911Z,86.47
2022-09-07T13:04:12.727Z,88.61
2022-09-07T13:07:09.166Z,87.03
2022-09-07T13:09:36.925Z,87.83
2022-09-07T13:15:09.653Z,88.45
2022-09-07T13:17:42.576Z,88.33
2022-09-07T13:20:09.383Z,89.09
2022-09-07T13:22:36.541Z,88.75
2022-09-07T13:25:27.652Z,89.41
2022-09-07T13:28:02.317Z,90.23
2022-09-07T13:30:29.293Z,89.15
2022-09-07T13:33:15.256Z,88.94
2022-09-07T13:35:45.562Z,90.88
2022-09-07T13:38:14.323Z,90.05
2022-09-07T13:40:46.898Z,90.85
2022-09-07T13:43:16.985Z,89.88
2022-09-07T13:46:13.680Z,91.24
2022-09-07T13:48:49.639Z,92.60
2022-09-07T13:51:27.635Z,93.25
2022-09-07T13:54:06.759Z,93.59
2022-09-07T13:56:33.929Z,94.03
2022-09-07T13:59:11.248Z,94.08
2022-09-07T14:01:43.151Z,94.50
2022-09-07T14:04:28.983Z,93.57
2022-09-07T14:07:03.293Z,94.08
2022-09-07T14:09:30.554Z,94.11
2022-09-07T14:11:57.370Z,94.25
2022-09-07T14:14:25.362Z,93.20
2022-09-07T14:16:52.431Z,91.96
2022-09-07T14:19:23.891Z,92.23
2022-09-07T14:22:01.817Z,91.29
2022-09-07T14:24:41.877Z,90.62
2022-09-07T14:27:24.765Z,89.61
2022-09-07T14:29:51.817Z,88.87
2022-09-07T14:32:21.623Z,87.64
2022-09-07T14:34:48.972Z,87.15
2022-09-07T14:37:17.315Z,85.97
2022-09-07T14:39:46.233Z,85.30
2022-09-07T14:42:15.746Z,85.73
2022-09-07T14:44:45.691Z,85.36
2022-09-07T14:47:24.812Z,84.85
2022-09-07T14:49:52.972Z,84.93
2022-09-07T14:52:22.632Z,84.85
2022-09-07T14:54:51.684Z,83.78
2022-09-07T14:57:18.631Z,84.44
2022-09-07T14:59:47.111Z,84.09
2022-09-07T15:02:24.245Z,84.86
2022-09-07T15:05:17.192Z,85.43
2022-09-07T15:07:49.440Z,86.06
2022-09-07T15:10:23.173Z,86.49
2022-09-07T15:12:51.406Z,87.28
2022-09-07T15:15:18.254Z,87.91
2022-09-07T15:17:45.848Z,87.78
2022-09-07T15:20:48.333Z,87.84
2022-09-07T15:23:17.629Z,88.29
2022-09-07T15:25:50.480Z,90.02
2022-09-07T15:29:08.157Z,88.64
2022-09-07T15:34:13.041Z,89.25
2022-09-07T15:36:42.694Z,88.99
2022-09-07T15:39:18.011Z,88.49
2022-09-07T15:41:45.314Z,89.10
2022-09-07T15:44:13.752Z,89.25
2022-09-07T15:46:41.898Z,88.96
2022-09-07T15:49:09.079Z,89.58
2022-09-07T15:54:23.070Z,90.63
2022-09-07T15:59:38.057Z,90.63
2022-09-07T16:03:04.632Z,90.83
2022-09-07T16:04:52.100Z,91.51
2022-09-07T16:07:19.179Z,92.08
2022-09-07T16:09:46.992Z,92.32
2022-09-07T16:15:00.764Z,92.57
2022-09-07T16:17:35.782Z,92.49
2022-09-07T16:20:06.903Z,92.81
2022-09-07T16:25:24.800Z,92.63
2022-09-07T16:27:54.163Z,92.51
2022-09-07T16:30:22.306Z,92.69
2022-09-07T16:32:51.131Z,91.96
2022-09-07T16:35:18.189Z,92.88
2022-09-07T16:40:41.550Z,93.19
2022-09-07T16:43:11.607Z,93.66
2022-09-07T16:48:25.413Z,93.23
2022-09-07T16:51:00.310Z,93.47
2022-09-07T16:53:32.784Z,93.76
2022-09-07T16:56:07.071Z,94.06
2022-09-07T16:58:35.710Z,93.63
2022-09-07T17:01:14.183Z,94.21
2022-09-07T17:03:44.661Z,95.22
2022-09-07T17:06:16.457Z,94.35
2022-09-07T17:08:46.416Z,94.47
2022-09-07T17:11:15.160Z,93.52
2022-09-07T17:13:52.682Z,94.47
2022-09-07T17:16:58.316Z,94.27
2022-09-07T17:20:08.035Z,95.23
2022-09-07T17:22:39.535Z,95.99
2022-09-07T17:25:22.463Z,95.51
2022-09-07T17:27:49.780Z,96.03
2022-09-07T17:30:20.795Z,95.83
2022-09-07T17:32:51.827Z,96.16
2022-09-07T17:41:08.073Z,94.73
2022-09-07T17:43:45.258Z,94.30
2022-09-07T17:46:21.724Z,93.83
2022-09-07T17:48:49.975Z,94.32
2022-09-07T17:51:21.642Z,94.09
2022-09-07T17:53:58.804Z,93.63
2022-09-07T17:56:29.696Z,93.88
2022-09-07T18:00:10.461Z,94.61
2022-09-07T18:01:45.167Z,94.41
2022-09-07T18:04:13.491Z,95.01
2022-09-07T18:06:41.464Z,95.08
2022-09-07T18:09:08.375Z,95.55
2022-09-07T18:11:51.071Z,96.13
2022-09-07T18:14:18.891Z,96.36
2022-09-07T18:16:46.878Z,96.55
2022-09-07T18:19:13.891Z,96.97
2022-09-07T18:21:42.337Z,97.99
2022-09-07T18:24:13.970Z,97.91
2022-09-07T18:26:41.304Z,97.78
2022-09-07T18:29:19.248Z,98.57
2022-09-07T18:31:57.588Z,98.91
2022-09-07T18:34:24.639Z,99.55
2022-09-07T18:36:51.579Z,99.67
2022-09-07T18:39:18.521Z,100.00
2022-09-07T18:41:45.535Z,99.28
2022-09-07T18:46:59.851Z,98.24
2022-09-07T18:49:26.649Z,98.44
2022-09-07T18:54:41.542Z,97.78
2022-09-07T18:57:08.505Z,98.58
2022-09-07T18:59:35.471Z,98.03
2022-09-07T19:02:04.855Z,97.73
2022-09-07T19:07:20.981Z,98.51
2022-09-07T19:09:51.012Z,98.71
2022-09-07T19:12:17.921Z,99.64
2022-09-07T19:14:44.742Z,99.17
2022-09-07T19:17:11.948Z,99.99
2022-09-07T19:19:39.735Z,100.00
2022-09-07T19:22:06.753Z,100.00
2022-09-07T19:24:33.625Z,100.00
2022-09-07T19:27:03.842Z,100.00
2022-09-07T19:29:30.729Z,100.00
2022-09-07T19:32:11.935Z,100.00
2022-09-07T19:34:40.230Z,100.00
2022-09-07T19:37:07.734Z,100.00
2022-09-07T19:39:34.635Z,100.00
2022-09-07T19:42:04.222Z,100.00
2022-09-07T19:44:31.579Z,100.00
2022-09-07T19:46:58.858Z,100.00
2022-09-07T19:49:25.976Z,100.00
2022-09-07T19:51:52.920Z,100.00
2022-09-07T19:54:27.885Z,100.00
2022-09-07T19:56:57.915Z,100.00
2022-09-07T19:59:25.067Z,100.00
2022-09-07T20:01:56.116Z,100.00
2022-09-07T20:04:23.874Z,100.00
2022-09-07T20:06:52.023Z,100.00
2022-09-07T20:09:20.143Z,100.00
2022-09-07T20:11:48.221Z,100.00
2022-09-07T20:14:15.987Z,100.00
2022-09-07T20:16:46.173Z,100.00
2022-09-07T20:19:16.109Z,100.00
2022-09-07T20:21:45.720Z,100.00
2022-09-07T20:24:21.658Z,100.00
2022-09-07T20:26:49.795Z,100.00
2022-09-07T20:29:27.254Z,100.00
2022-09-07T20:31:59.503Z,100.00
2022-09-07T20:34:27.114Z,100.00
2022-09-07T20:36:57.438Z,100.00
2022-09-07T20:39:24.798Z,100.00
2022-09-07T20:41:51.775Z,100.00
2022-09-07T20:44:19.042Z,100.00
2022-09-07T20:46:46.115Z,100.00
2022-09-07T20:49:13.013Z,100.00
2022-09-07T20:51:40.034Z,99.90
2022-09-07T20:54:07.327Z,99.84
2022-09-07T20:56:34.337Z,99.87
2022-09-07T20:59:02.181Z,99.65
2022-09-07T21:01:29.861Z,99.07
2022-09-07T21:03:58.288Z,99.59
2022-09-07T21:06:26.403Z,100.00
2022-09-07T21:08:53.553Z,100.00
2022-09-07T21:11:21.911Z,100.00
2022-09-07T21:13:54.486Z,100.00
2022-09-07T21:16:21.589Z,100.00
2022-09-07T21:18:51.766Z,100.00
2022-09-07T21:21:20.102Z,100.00
2022-09-07T21:23:48.133Z,100.00
2022-09-07T21:26:15.223Z,100.00
2022-09-07T21:28:42.154Z,100.00
2022-09-07T21:31:09.539Z,100.00
2022-09-07T21:33:37.750Z,100.00
2022-09-07T21:36:12.440Z,100.00
2022-09-07T21:38:40.296Z,100.00
2022-09-07T21:41:07.401Z,100.00
2022-09-07T21:43:34.417Z,100.00
2022-09-07T21:46:10.386Z,99.81
2022-09-07T21:48:38.216Z,99.63
2022-09-07T21:51:05.436Z,99.27
2022-09-07T21:53:32.471Z,98.94
2022-09-07T21:56:01.087Z,98.47
2022-09-07T21:58:28.582Z,98.33
2022-09-07T22:00:55.685Z,98.53
2022-09-07T22:03:23.224Z,98.82
2022-09-07T22:05:50.271Z,98.35
2022-09-07T22:08:17.278Z,98.57
2022-09-07T22:10:44.778Z,97.88
2022-09-07T22:13:24.230Z,98.11
2022-09-07T22:15:57.326Z,97.83
2022-09-07T22:18:24.233Z,98.44
2022-09-07T22:21:00.575Z,98.08
2022-09-07T22:23:29.624Z,97.76
2022-09-07T22:25:56.547Z,97.54
2022-09-07T22:28:23.339Z,97.65
2022-09-07T22:30:50.242Z,97.32
2022-09-07T22:33:17.018Z,97.42
2022-09-07T22:35:45.047Z,97.12
2022-09-07T22:38:11.872Z,97.46
2022-09-07T22:40:38.931Z,96.89
2022-09-07T22:43:07.145Z,96.83
2022-09-07T22:45:34.155Z,96.83
2022-09-07T22:48:01.445Z,96.93
2022-09-07T22:50:28.303Z,96.75
2022-09-07T22:52:55.197Z,97.00
2022-09-07T22:55:22.084Z,97.47
2022-09-07T22:57:48.911Z,97.39
2022-09-07T23:00:16.061Z,97.12
2022-09-07T23:02:43.192Z,97.83
2022-09-07T23:05:10.241Z,97.43
2022-09-07T23:07:37.129Z,97.34
2022-09-07T23:10:04.160Z,98.02
2022-09-07T23:12:31.350Z,97.32
2022-09-07T23:14:58.382Z,97.11
2022-09-07T23:17:25.219Z,96.74
2022-09-07T23:19:52.107Z,97.22
2022-09-07T23:22:18.917Z,96.91
2022-09-07T23:24:45.847Z,97.01
2022-09-07T23:27:12.678Z,96.55
2022-09-07T23:29:39.532Z,96.92
2022-09-07T23:32:06.595Z,96.55
2022-09-07T23:34:33.958Z,96.32
2022-09-07T23:37:00.879Z,96.37
2022-09-07T23:39:27.699Z,95.97
2022-09-07T23:41:55.172Z,95.95
2022-09-07T23:44:22.211Z,96.52
2022-09-07T23:46:49.085Z,96.13
2022-09-07T23:49:15.995Z,95.89
2022-09-07T23:51:42.834Z,95.92
2022-09-07T23:54:10.214Z,95.62
2022-09-07T23:56:38.222Z,96.21
2022-09-07T23:59:05.657Z,96.02
